createdAt,value
2022-11-20T00:01:40.158Z,101266.84
2022-11-20T00:04:12.764Z,101266.20
2022-11-20T00:06:41.626Z,101270.23
2022-11-20T00:09:11.382Z,101280.94
2022-11-20T00:11:40.066Z,101283.84
2022-11-20T00:14:10.873Z,101290.91
2022-11-20T00:16:39.481Z,101294.09
2022-11-20T00:19:08.125Z,101298.59
2022-11-20T00:21:36.801Z,101304.88
2022-11-20T00:24:05.852Z,101303.71
2022-11-20T00:26:34.749Z,101310.94
2022-11-20T00:29:04.392Z,101311.60
2022-11-20T00:31:34.663Z,101312.77
2022-11-20T00:34:04.151Z,101309.27
2022-11-20T00:36:35.310Z,101307.69
2022-11-20T00:39:04.013Z,101306.09
2022-11-20T00:41:32.702Z,101303.42
2022-11-20T00:44:01.479Z,101305.05
2022-11-20T00:46:30.358Z,101300.11
2022-11-20T00:48:59.230Z,101294.69
2022-11-20T00:51:28.861Z,101289.05
2022-11-20T00:54:01.225Z,101282.14
2022-11-20T00:56:30.101Z,101288.42
2022-11-20T00:59:01.975Z,101291.34
2022-11-20T01:01:31.420Z,101284.02
2022-11-20T01:04:01.705Z,101275.71
2022-11-20T01:06:34.767Z,101272.36
2022-11-20T01:09:13.686Z,101273.24
2022-11-20T01:11:46.310Z,101270.16
2022-11-20T01:14:18.751Z,101266.84
2022-11-20T01:16:51.117Z,101262.68
2022-11-20T01:19:23.877Z,101249.41
2022-11-20T01:21:55.432Z,101242.32
2022-11-20T01:24:24.499Z,101237.50
2022-11-20T01:26:53.564Z,101229.48
2022-11-20T01:29:25.904Z,101226.21
2022-11-20T01:31:54.637Z,101226.04
2022-11-20T01:34:24.211Z,101218.48
2022-11-20T01:36:54.026Z,101214.08
2022-11-20T01:39:28.111Z,101210.93
2022-11-20T01:42:15.640Z,101205.22
2022-11-20T01:44:52.441Z,101198.27
2022-11-20T01:47:46.277Z,101189.36
2022-11-20T01:50:34.249Z,101179.56
2022-11-20T01:53:09.743Z,101176.77
2022-11-20T01:55:46.612Z,101176.84
2022-11-20T01:58:15.462Z,101173.16
2022-11-20T02:00:44.405Z,101167.27
2022-11-20T02:03:18.210Z,101168.13
2022-11-20T02:06:02.826Z,101170.30
2022-11-20T02:08:32.561Z,101164.52
2022-11-20T02:11:01.216Z,101160.01
2022-11-20T02:13:46.551Z,101160.36
2022-11-20T02:16:25.612Z,101162.61
2022-11-20T02:18:56.834Z,101163.80
2022-11-20T02:21:44.108Z,101169.27
2022-11-20T02:24:18.192Z,101166.44
2022-11-20T02:27:00.414Z,101163.22
2022-11-20T02:30:03.121Z,101161.32
2022-11-20T02:32:36.358Z,101157.08
2022-11-20T02:35:09.241Z,101159.70
2022-11-20T02:37:41.538Z,101166.02
2022-11-20T02:40:11.009Z,101167.55
2022-11-20T02:42:39.680Z,101164.66
2022-11-20T02:45:09.721Z,101167.48
2022-11-20T02:47:38.628Z,101163.50
2022-11-20T02:50:07.677Z,101163.48
2022-11-20T02:52:36.444Z,101160.58
2022-11-20T02:55:05.889Z,101152.96
2022-11-20T02:57:34.889Z,101145.08
2022-11-20T03:00:05.445Z,101143.86
2022-11-20T03:02:34.713Z,101137.15
2022-11-20T03:05:04.014Z,101136.45
2022-11-20T03:07:32.819Z,101129.13
2022-11-20T03:10:01.431Z,101122.55
2022-11-20T03:12:30.084Z,101113.81
2022-11-20T03:14:58.747Z,101112.29
2022-11-20T03:17:27.314Z,101113.45
2022-11-20T03:19:55.940Z,101108.96
2022-11-20T03:22:24.569Z,101107.83
2022-11-20T03:24:53.213Z,101105.73
2022-11-20T03:27:21.950Z,101099.48
2022-11-20T03:29:50.653Z,101090.59
2022-11-20T03:32:19.307Z,101081.80
2022-11-20T03:34:47.928Z,101079.61
2022-11-20T03:37:16.579Z,101072.61
2022-11-20T03:39:45.194Z,101061.88
2022-11-20T03:42:31.985Z,101057.59
2022-11-20T03:45:00.591Z,101056.56
2022-11-20T03:47:29.744Z,101055.43
2022-11-20T03:49:58.349Z,101053.48
2022-11-20T03:52:26.897Z,101046.45
2022-11-20T03:54:55.649Z,101036.49
2022-11-20T03:57:24.316Z,101030.33
2022-11-20T03:59:52.957Z,101013.25
2022-11-20T04:02:21.569Z,101011.77
2022-11-20T04:04:50.247Z,101012.39
2022-11-20T04:07:18.932Z,101017.48
2022-11-20T04:09:47.702Z,101012.00
2022-11-20T04:12:16.289Z,101002.37
2022-11-20T04:14:44.872Z,100996.48
2022-11-20T04:17:13.489Z,100993.23
2022-11-20T04:19:42.093Z,100991.34
2022-11-20T04:22:12.729Z,100988.00
2022-11-20T04:24:41.271Z,100986.18
2022-11-20T04:27:09.919Z,100981.04
2022-11-20T04:29:38.642Z,100974.16
2022-11-20T04:32:07.337Z,100973.66
2022-11-20T04:34:36.067Z,100969.02
2022-11-20T04:37:04.771Z,100967.17
2022-11-20T04:39:33.346Z,100971.48
2022-11-20T04:42:20.197Z,100963.57
2022-11-20T04:44:48.851Z,100955.42
2022-11-20T04:47:17.385Z,100957.45
2022-11-20T04:49:46.047Z,100969.57
2022-11-20T04:52:15.358Z,100966.64
2022-11-20T04:54:43.990Z,100968.33
2022-11-20T04:57:14.921Z,100966.06
2022-11-20T04:59:43.577Z,100961.84
2022-11-20T05:02:13.207Z,100959.31
2022-11-20T05:04:41.887Z,100957.95
2022-11-20T05:07:10.563Z,100950.14
2022-11-20T05:09:39.163Z,100947.05
2022-11-20T05:12:09.915Z,100949.09
2022-11-20T05:14:38.817Z,100944.14
2022-11-20T05:17:10.787Z,100941.10
2022-11-20T05:19:39.449Z,100938.89
2022-11-20T05:22:08.104Z,100933.86
2022-11-20T05:24:36.800Z,100921.57
2022-11-20T05:27:05.608Z,100910.66
2022-11-20T05:29:34.290Z,100908.84
2022-11-20T05:32:03.299Z,100907.69
2022-11-20T05:34:31.865Z,100897.66
2022-11-20T05:37:00.526Z,100899.39
2022-11-20T05:39:29.570Z,100911.80
2022-11-20T05:42:16.310Z,100921.57
2022-11-20T05:44:44.927Z,100923.36
2022-11-20T05:47:13.561Z,100930.96
2022-11-20T05:49:42.220Z,100936.97
2022-11-20T05:52:10.901Z,100931.42
2022-11-20T05:54:39.535Z,100915.21
2022-11-20T05:57:08.123Z,100896.05
2022-11-20T05:59:36.759Z,100882.02
2022-11-20T06:02:05.456Z,100869.01
2022-11-20T06:04:35.766Z,100851.89
2022-11-20T06:07:07.598Z,100843.09
2022-11-20T06:09:36.242Z,100843.37
2022-11-20T06:12:05.343Z,100853.13
2022-11-20T06:14:34.476Z,100867.52
2022-11-20T06:17:03.275Z,100878.09
2022-11-20T06:19:31.851Z,100893.31
2022-11-20T06:22:00.524Z,100912.42
2022-11-20T06:24:29.212Z,100915.27
2022-11-20T06:26:57.817Z,100914.27
2022-11-20T06:29:30.201Z,100911.26
2022-11-20T06:32:02.611Z,100911.33
2022-11-20T06:34:31.245Z,100902.48
2022-11-20T06:36:59.971Z,100892.10
2022-11-20T06:39:28.675Z,100894.87
2022-11-20T06:41:58.943Z,100894.08
2022-11-20T06:44:28.133Z,100887.26
2022-11-20T06:46:56.769Z,100871.43
2022-11-20T06:49:26.407Z,100869.46
2022-11-20T06:51:55.059Z,100868.91
2022-11-20T06:54:23.674Z,100863.42
2022-11-20T06:56:52.400Z,100860.17
2022-11-20T06:59:21.304Z,100857.74
2022-11-20T07:01:50.076Z,100854.27
2022-11-20T07:04:18.766Z,100852.23
2022-11-20T07:06:47.364Z,100845.48
2022-11-20T07:09:16.269Z,100849.76
2022-11-20T07:11:44.892Z,100859.40
2022-11-20T07:14:13.512Z,100860.27
2022-11-20T07:16:42.155Z,100854.71
2022-11-20T07:19:10.702Z,100853.86
2022-11-20T07:21:39.310Z,100855.67
2022-11-20T07:24:08.331Z,100853.34
2022-11-20T07:26:38.222Z,100847.99
2022-11-20T07:29:07.016Z,100830.65
2022-11-20T07:31:35.548Z,100837.04
2022-11-20T07:34:04.219Z,100894.38
2022-11-20T07:36:32.879Z,100920.30
2022-11-20T07:39:01.763Z,100909.34
2022-11-20T07:41:30.532Z,100888.61
2022-11-20T07:43:59.591Z,100859.08
2022-11-20T07:46:28.282Z,100835.21
2022-11-20T07:48:56.926Z,100822.91
2022-11-20T07:51:27.105Z,100833.52
2022-11-20T07:53:55.737Z,100813.48
2022-11-20T07:56:24.319Z,100807.15
2022-11-20T07:58:52.898Z,100820.75
2022-11-20T08:01:21.567Z,100817.02
2022-11-20T08:03:50.696Z,100828.91
2022-11-20T08:06:20.690Z,100830.09
2022-11-20T08:08:49.416Z,100853.92
2022-11-20T08:11:36.337Z,100862.75
2022-11-20T08:14:14.211Z,100843.30
2022-11-20T08:16:49.035Z,100826.30
2022-11-20T08:19:20.037Z,100810.05
2022-11-20T08:21:49.119Z,100809.54
2022-11-20T08:24:17.734Z,100802.75
2022-11-20T08:26:46.313Z,100791.42
2022-11-20T08:29:14.907Z,100785.73
2022-11-20T08:31:43.656Z,100786.41
2022-11-20T08:34:32.501Z,100784.16
2022-11-20T08:37:03.806Z,100775.67
2022-11-20T08:39:32.483Z,100762.85
2022-11-20T08:42:01.051Z,100776.27
2022-11-20T08:44:29.637Z,100787.40
2022-11-20T08:46:58.257Z,100796.52
2022-11-20T08:49:26.849Z,100801.85
2022-11-20T08:51:56.513Z,100802.14
2022-11-20T08:54:25.137Z,100802.00
2022-11-20T08:56:53.837Z,100810.91
2022-11-20T08:59:51.029Z,100810.02
2022-11-20T09:02:10.983Z,100803.55
2022-11-20T09:04:39.684Z,100795.06
2022-11-20T09:07:08.988Z,100789.94
2022-11-20T09:09:37.634Z,100793.33
2022-11-20T09:12:06.388Z,100790.25
2022-11-20T09:14:34.990Z,100786.52
2022-11-20T09:17:03.957Z,100787.48
2022-11-20T09:19:40.871Z,100785.21
2022-11-20T09:22:09.986Z,100785.35
2022-11-20T09:24:38.654Z,100778.09
2022-11-20T09:27:07.330Z,100776.98
2022-11-20T09:29:36.010Z,100777.12
2022-11-20T09:32:05.144Z,100763.91
2022-11-20T09:34:33.834Z,100760.64
2022-11-20T09:37:06.257Z,100748.89
2022-11-20T09:39:40.090Z,100739.86
2022-11-20T09:42:36.904Z,100747.39
2022-11-20T09:45:20.592Z,100727.33
2022-11-20T09:48:19.756Z,100746.20
2022-11-20T09:51:06.616Z,100748.28
2022-11-20T09:54:06.299Z,100756.85
2022-11-20T09:56:41.195Z,100756.45
2022-11-20T09:59:37.288Z,100757.88
2022-11-20T10:02:24.258Z,100756.19
2022-11-20T10:05:12.304Z,100749.40
2022-11-20T10:08:01.521Z,100741.94
2022-11-20T10:10:43.584Z,100740.12
2022-11-20T10:13:46.570Z,100748.50
2022-11-20T10:16:24.433Z,100728.77
2022-11-20T10:19:37.135Z,100704.50
2022-11-20T10:22:20.484Z,100723.90
2022-11-20T10:25:19.530Z,100724.05
2022-11-20T10:28:28.361Z,100718.52
2022-11-20T10:31:03.987Z,100701.48
2022-11-20T10:34:10.554Z,100692.05
2022-11-20T10:36:52.246Z,100698.36
2022-11-20T10:40:00.676Z,100698.84
2022-11-20T10:43:14.765Z,100688.93
2022-11-20T10:46:05.662Z,100662.88
2022-11-20T10:48:34.977Z,100674.55
2022-11-20T10:51:41.383Z,100664.48
2022-11-20T10:54:56.193Z,100642.14
2022-11-20T10:58:18.702Z,100661.11
2022-11-20T11:00:47.358Z,100693.67
2022-11-20T11:03:34.085Z,100710.27
2022-11-20T11:06:18.972Z,100706.95
2022-11-20T11:08:50.466Z,100701.95
2022-11-20T11:11:31.549Z,100716.10
2022-11-20T11:14:15.719Z,100700.42
2022-11-20T11:16:57.135Z,100675.29
2022-11-20T11:19:26.362Z,100682.76
2022-11-20T11:21:57.890Z,100679.15
2022-11-20T11:24:46.728Z,100660.81
2022-11-20T11:27:19.222Z,100662.08
2022-11-20T11:29:48.421Z,100662.45
2022-11-20T11:32:21.970Z,100666.05
2022-11-20T11:35:07.487Z,100683.08
2022-11-20T11:37:40.708Z,100704.34
2022-11-20T11:40:28.302Z,100701.66
2022-11-20T11:43:27.609Z,100704.92
2022-11-20T11:45:57.554Z,100691.73
2022-11-20T11:48:26.193Z,100686.71
2022-11-20T11:50:55.160Z,100687.70
2022-11-20T11:53:26.792Z,100647.05
2022-11-20T11:56:07.294Z,100647.20
2022-11-20T11:58:47.521Z,100654.36
2022-11-20T12:01:55.851Z,100656.64
2022-11-20T12:04:56.310Z,100661.67
2022-11-20T12:07:46.755Z,100703.20
2022-11-20T12:10:35.974Z,100701.21
2022-11-20T12:13:38.723Z,100689.19
2022-11-20T12:16:15.019Z,100689.89
2022-11-20T12:18:44.092Z,100687.35
2022-11-20T12:21:36.287Z,100682.31
2022-11-20T12:24:16.899Z,100707.50
2022-11-20T12:26:56.338Z,100701.74
2022-11-20T12:30:08.732Z,100653.02
2022-11-20T12:33:01.950Z,100668.16
2022-11-20T12:35:48.851Z,100669.05
2022-11-20T12:38:51.515Z,100658.65
2022-11-20T12:42:02.463Z,100656.02
2022-11-20T12:44:59.551Z,100656.08
2022-11-20T12:47:33.827Z,100644.33
2022-11-20T12:51:00.344Z,100649.27
2022-11-20T12:53:42.900Z,100650.79
2022-11-20T12:56:44.839Z,100655.56
2022-11-20T12:59:46.780Z,100657.90
2022-11-20T13:02:31.766Z,100664.14
2022-11-20T13:05:28.069Z,100653.25
2022-11-20T13:07:59.203Z,100656.89
2022-11-20T13:10:48.554Z,100656.76
2022-11-20T13:13:37.183Z,100645.96
2022-11-20T13:16:43.792Z,100654.41
2022-11-20T13:19:17.159Z,100653.55
2022-11-20T13:21:50.521Z,100645.41
2022-11-20T13:24:28.898Z,100633.06
2022-11-20T13:27:06.196Z,100630.77
2022-11-20T13:29:40.724Z,100632.98
2022-11-20T13:32:21.877Z,100621.62
2022-11-20T13:35:02.780Z,100631.08
2022-11-20T13:37:37.876Z,100640.80
2022-11-20T13:40:09.564Z,100647.02
2022-11-20T13:42:45.474Z,100648.90
2022-11-20T13:45:30.563Z,100646.97
2022-11-20T13:48:20.953Z,100638.38
2022-11-20T13:51:31.511Z,100630.23
2022-11-20T13:54:40.628Z,100609.95
2022-11-20T13:57:33.659Z,100611.24
2022-11-20T14:00:16.791Z,100620.09
2022-11-20T14:02:54.386Z,100629.30
2022-11-20T14:05:24.994Z,100628.59
2022-11-20T14:07:55.278Z,100627.98
2022-11-20T14:10:32.325Z,100635.27
2022-11-20T14:13:19.074Z,100637.69
2022-11-20T14:15:48.134Z,100637.73
2022-11-20T14:18:25.371Z,100643.11
2022-11-20T14:20:54.044Z,100634.09
2022-11-20T14:23:30.656Z,100631.35
2022-11-20T14:25:59.601Z,100624.02
2022-11-20T14:28:31.628Z,100626.26
2022-11-20T14:31:00.290Z,100621.84
2022-11-20T14:33:29.027Z,100621.77
2022-11-20T14:35:59.557Z,100624.04
2022-11-20T14:38:32.750Z,100629.70
2022-11-20T14:41:09.312Z,100642.41
2022-11-20T14:43:39.000Z,100629.20
2022-11-20T14:46:11.128Z,100631.16
2022-11-20T14:48:47.950Z,100632.20
2022-11-20T14:51:44.180Z,100634.91
2022-11-20T14:54:25.329Z,100633.73
2022-11-20T14:57:00.338Z,100630.36
2022-11-20T14:59:34.973Z,100634.61
2022-11-20T15:05:06.744Z,100623.06
2022-11-20T15:07:42.814Z,100626.48
2022-11-20T15:10:29.411Z,100634.06
2022-11-20T15:13:16.776Z,100636.00
2022-11-20T15:15:49.304Z,100628.69
2022-11-20T15:18:39.688Z,100629.14
2022-11-20T15:21:15.160Z,100629.91
2022-11-20T15:23:44.914Z,100621.47
2022-11-20T15:26:21.280Z,100609.83
2022-11-20T15:28:51.457Z,100618.04
2022-11-20T15:31:23.600Z,100631.73
2022-11-20T15:33:52.418Z,100645.51
2022-11-20T15:36:21.126Z,100655.76
2022-11-20T15:38:50.135Z,100643.14
2022-11-20T15:41:18.893Z,100636.81
2022-11-20T15:43:47.807Z,100635.11
2022-11-20T15:46:28.282Z,100637.02
2022-11-20T15:48:58.703Z,100657.17
2022-11-20T15:51:36.890Z,100647.35
2022-11-20T15:54:26.157Z,100661.42
2022-11-20T15:56:55.400Z,100658.64
2022-11-20T15:59:24.056Z,100659.56
2022-11-20T16:01:53.001Z,100645.66
2022-11-20T16:04:22.163Z,100660.63
2022-11-20T16:06:51.371Z,100664.08
2022-11-20T16:09:20.201Z,100646.31
2022-11-20T16:11:48.941Z,100633.89
2022-11-20T16:14:36.173Z,100635.84
2022-11-20T16:17:05.266Z,100620.36
2022-11-20T16:19:34.256Z,100610.22
2022-11-20T16:22:03.525Z,100615.15
2022-11-20T16:24:32.682Z,100623.19
2022-11-20T16:27:01.380Z,100626.59
2022-11-20T16:29:30.036Z,100626.64
2022-11-20T16:31:58.716Z,100615.69
2022-11-20T16:34:27.591Z,100606.91
2022-11-20T16:36:56.292Z,100600.75
2022-11-20T16:39:26.412Z,100611.88
2022-11-20T16:41:55.106Z,100616.77
2022-11-20T16:44:23.945Z,100612.95
2022-11-20T16:46:52.738Z,100637.06
2022-11-20T16:49:21.385Z,100643.39
2022-11-20T16:51:50.194Z,100643.11
2022-11-20T16:54:21.161Z,100634.38
2022-11-20T16:56:52.166Z,100627.84
2022-11-20T16:59:21.281Z,100626.21
2022-11-20T17:01:50.287Z,100620.95
2022-11-20T17:04:19.324Z,100616.96
2022-11-20T17:06:48.228Z,100643.44
2022-11-20T17:09:17.608Z,100640.54
2022-11-20T17:11:46.289Z,100629.27
2022-11-20T17:14:14.998Z,100629.12
2022-11-20T17:16:43.703Z,100633.73
2022-11-20T17:19:14.828Z,100654.52
2022-11-20T17:21:43.453Z,100651.63
2022-11-20T17:24:13.880Z,100633.45
2022-11-20T17:26:44.817Z,100637.29
2022-11-20T17:29:24.440Z,100631.05
2022-11-20T17:31:54.564Z,100610.83
2022-11-20T17:34:23.575Z,100606.30
2022-11-20T17:36:52.723Z,100607.14
2022-11-20T17:39:21.547Z,100621.45
2022-11-20T17:42:10.380Z,100633.88
2022-11-20T17:44:39.369Z,100646.31
2022-11-20T17:47:08.560Z,100648.60
2022-11-20T17:49:37.257Z,100640.34
2022-11-20T17:52:06.178Z,100640.48
2022-11-20T17:54:35.144Z,100631.02
2022-11-20T17:57:22.569Z,100626.95
2022-11-20T17:59:51.458Z,100637.21
2022-11-20T18:02:20.449Z,100629.11
2022-11-20T18:04:50.671Z,100630.98
2022-11-20T18:07:19.503Z,100628.39
2022-11-20T18:09:48.379Z,100619.28
2022-11-20T18:12:17.243Z,100626.63
2022-11-20T18:14:47.769Z,100625.90
2022-11-20T18:17:16.760Z,100630.83
2022-11-20T18:20:07.231Z,100643.16
2022-11-20T18:22:37.387Z,100635.98
2022-11-20T18:25:07.511Z,100635.70
2022-11-20T18:27:36.510Z,100628.64
2022-11-20T18:30:05.913Z,100637.33
2022-11-20T18:32:35.525Z,100636.01
2022-11-20T18:35:05.148Z,100633.11
2022-11-20T18:37:34.023Z,100642.73
2022-11-20T18:40:02.913Z,100637.67
2022-11-20T18:42:50.139Z,100647.12
2022-11-20T18:45:19.048Z,100655.84
2022-11-20T18:47:47.930Z,100663.46
2022-11-20T18:50:16.917Z,100663.95
2022-11-20T18:52:47.138Z,100658.91
2022-11-20T18:55:16.118Z,100655.08
2022-11-20T18:57:44.829Z,100647.79
2022-11-20T19:00:14.770Z,100646.14
2022-11-20T19:02:43.786Z,100657.91
2022-11-20T19:05:15.168Z,100656.06
2022-11-20T19:07:44.035Z,100664.00
2022-11-20T19:10:13.254Z,100669.23
2022-11-20T19:12:41.839Z,100675.94
2022-11-20T19:15:11.756Z,100673.52
2022-11-20T19:17:40.658Z,100668.68
2022-11-20T19:20:10.653Z,100678.09
2022-11-20T19:22:39.469Z,100683.79
2022-11-20T19:25:09.385Z,100691.19
2022-11-20T19:27:39.284Z,100683.66
2022-11-20T19:30:09.524Z,100681.12
2022-11-20T19:32:38.310Z,100675.61
2022-11-20T19:35:07.787Z,100666.40
2022-11-20T19:37:36.594Z,100663.66
2022-11-20T19:40:06.442Z,100672.39
2022-11-20T19:42:35.200Z,100670.65
2022-11-20T19:45:04.450Z,100659.52
2022-11-20T19:48:06.102Z,100658.25
2022-11-20T19:50:22.206Z,100653.20
2022-11-20T19:52:54.417Z,100675.70
2022-11-20T19:55:27.097Z,100668.59
2022-11-20T19:57:56.963Z,100673.73
2022-11-20T20:00:31.138Z,100667.89
2022-11-20T20:03:01.770Z,100665.36
2022-11-20T20:05:31.365Z,100662.86
2022-11-20T20:08:00.273Z,100663.67
2022-11-20T20:10:29.364Z,100673.10
2022-11-20T20:12:58.152Z,100659.22
2022-11-20T20:15:27.036Z,100651.80
2022-11-20T20:17:55.932Z,100644.90
2022-11-20T20:20:25.306Z,100637.23
2022-11-20T20:22:54.224Z,100633.11
2022-11-20T20:25:23.224Z,100632.76
2022-11-20T20:27:52.106Z,100629.64
2022-11-20T20:30:21.113Z,100634.54
2022-11-20T20:32:54.857Z,100643.94
2022-11-20T20:35:25.350Z,100639.98
2022-11-20T20:37:54.137Z,100644.48
2022-11-20T20:40:23.942Z,100644.34
2022-11-20T20:42:52.634Z,100644.75
2022-11-20T20:45:21.522Z,100640.73
2022-11-20T20:47:50.730Z,100633.31
2022-11-20T20:50:19.706Z,100625.39
2022-11-20T20:52:49.223Z,100622.20
2022-11-20T20:55:18.216Z,100620.10
2022-11-20T20:57:46.999Z,100618.23
2022-11-20T21:00:16.913Z,100619.77
2022-11-20T21:02:45.626Z,100627.39
2022-11-20T21:05:15.240Z,100623.04
2022-11-20T21:08:02.640Z,100614.70
2022-11-20T21:10:31.728Z,100631.08
2022-11-20T21:13:00.435Z,100639.13
2022-11-20T21:15:29.320Z,100635.95
2022-11-20T21:17:58.208Z,100632.77
2022-11-20T21:20:45.525Z,100627.02
2022-11-20T21:23:14.364Z,100625.05
2022-11-20T21:25:43.206Z,100621.30
2022-11-20T21:28:15.574Z,100617.02
2022-11-20T21:30:48.045Z,100626.56
2022-11-20T21:33:19.198Z,100632.54
2022-11-20T21:35:48.092Z,100630.69
2022-11-20T21:38:16.891Z,100627.65
2022-11-20T21:40:46.086Z,100622.48
2022-11-20T21:43:14.977Z,100621.92
2022-11-20T21:45:43.758Z,100613.48
2022-11-20T21:48:12.757Z,100617.98
2022-11-20T21:50:41.643Z,100625.02
2022-11-20T21:53:10.553Z,100639.44
2022-11-20T21:55:39.439Z,100638.61
2022-11-20T21:58:09.148Z,100641.05
2022-11-20T22:00:38.337Z,100645.40
2022-11-20T22:03:06.970Z,100635.70
2022-11-20T22:05:35.829Z,100629.32
2022-11-20T22:08:04.814Z,100617.13
2022-11-20T22:10:33.526Z,100607.11
2022-11-20T22:13:20.967Z,100605.11
2022-11-20T22:16:04.103Z,100603.94
2022-11-20T22:18:33.039Z,100602.60
2022-11-20T22:21:08.299Z,100606.22
2022-11-20T22:23:37.294Z,100611.64
2022-11-20T22:26:12.330Z,100607.52
2022-11-20T22:28:41.725Z,100602.48
2022-11-20T22:31:12.136Z,100604.05
2022-11-20T22:33:40.835Z,100603.89
2022-11-20T22:36:28.880Z,100605.96
2022-11-20T22:38:58.756Z,100607.09
2022-11-20T22:41:29.726Z,100603.73
2022-11-20T22:44:03.996Z,100600.13
2022-11-20T22:46:35.990Z,100604.23
2022-11-20T22:49:08.986Z,100599.91
2022-11-20T22:51:41.001Z,100594.75
2022-11-20T22:54:12.719Z,100596.20
2022-11-20T22:56:42.028Z,100595.69
2022-11-20T22:59:10.913Z,100592.17
2022-11-20T23:01:39.804Z,100590.73
2022-11-20T23:04:11.361Z,100585.77
2022-11-20T23:06:40.044Z,100587.13
2022-11-20T23:09:09.821Z,100582.41
2022-11-20T23:11:39.153Z,100578.20
2022-11-20T23:14:14.237Z,100575.77
2022-11-20T23:16:43.396Z,100585.48
2022-11-20T23:19:14.766Z,100589.38
2022-11-20T23:21:44.139Z,100582.35
2022-11-20T23:24:12.942Z,100570.14
2022-11-20T23:26:42.324Z,100563.96
2022-11-20T23:29:11.032Z,100555.20
2022-11-20T23:31:40.145Z,100547.75
2022-11-20T23:34:08.920Z,100551.95
2022-11-20T23:36:37.905Z,100562.38
2022-11-20T23:39:07.110Z,100583.30
2022-11-20T23:41:35.894Z,100588.11
2022-11-20T23:44:04.879Z,100594.16
2022-11-20T23:46:33.882Z,100582.79
2022-11-20T23:49:02.663Z,100567.05
2022-11-20T23:51:31.666Z,100567.19
2022-11-20T23:54:04.549Z,100570.73
2022-11-20T23:56:33.649Z,100578.55
2022-11-20T23:59:06.217Z,100574.93
